Check out our new PWSWeather beta!
PWSweather.com
Personal Weather Stations
Station Observations

PoschiavoCH

Lat: 46.31962499999999, Lon: 10.066551000000004

Elevation: 3517

Station Type: WH 1080

http://www.meteoposchiavo.com

High Low Average
Temperature 82.0°F27.8°C 55.0°F12.8°C 67.8°F19.9°C
Dew Point 63.2°F17.3°C 52.4°F11.3°C 58.4°F14.7°C
Winds 5.8 mph 9.3 kmh Calm Calm 1.0 mph SE1.6 kmh SE
Wind Gusts 9.2 mph14.8 kmh -- 1.0 mph1.6 kmh
Humidity 98% 50% 74%
Pressure 26.53 in898.4 mb 26.44 in895.4 mb -
Precipitation 0.10 in2.5 mm - -
Hour Temp Dew Point Humidity Winds Wind Gusts Pressure Precip Precip Rate Daily Precip Total
12:00 AM 58.0°F14.4°C 55.1°F12.8°C 90% Calm Calm -- 26.52 in898.1 mb - 0.00 in0.0 mm 0.00 in0.0 mm
12:10 AM 58.0°F14.4°C 55.1°F12.8°C 90% Calm Calm -- 26.52 in898.1 mb - 0.00 in0.0 mm 0.00 in0.0 mm
12:15 AM 57.0°F13.9°C 54.1°F12.3°C 90% Calm Calm -- 26.52 in898.1 mb - 0.00 in0.0 mm 0.00 in0.0 mm
12:20 AM 58.0°F14.4°C 54.5°F12.5°C 88% Calm Calm -- 26.52 in898.1 mb - 0.00 in0.0 mm 0.00 in0.0 mm
12:25 AM 58.0°F14.4°C 54.8°F12.7°C 89% Calm Calm -- 26.51 in897.7 mb - 0.00 in0.0 mm 0.00 in0.0 mm
12:30 AM 58.0°F14.4°C 55.1°F12.8°C 90% Calm Calm -- 26.51 in897.7 mb - 0.00 in0.0 mm 0.00 in0.0 mm
12:35 AM 58.0°F14.4°C 55.1°F12.8°C 90% Calm Calm -- 26.51 in897.7 mb - 0.00 in0.0 mm 0.00 in0.0 mm
12:40 AM 57.0°F13.9°C 54.1°F12.3°C 90% Calm Calm -- 26.51 in897.7 mb - 0.00 in0.0 mm 0.00 in0.0 mm
12:45 AM 58.0°F14.4°C 54.8°F12.7°C 89% Calm Calm -- 26.51 in897.7 mb - 0.00 in0.0 mm 0.00 in0.0 mm
12:50 AM 58.0°F14.4°C 54.2°F12.3°C 87% Calm Calm -- 26.51 in897.7 mb - 0.00 in0.0 mm 0.00 in0.0 mm
12:55 AM 58.0°F14.4°C 54.8°F12.7°C 89% Calm Calm -- 26.51 in897.7 mb - 0.00 in0.0 mm 0.00 in0.0 mm
01:00 AM 57.0°F13.9°C 53.8°F12.1°C 89% Calm Calm -- 26.51 in897.7 mb - 0.00 in0.0 mm 0.00 in0.0 mm
01:10 AM 57.0°F13.9°C 54.1°F12.3°C 90% Calm Calm -- 26.51 in897.7 mb - 0.00 in0.0 mm 0.00 in0.0 mm
01:15 AM 57.0°F13.9°C 54.1°F12.3°C 90% Calm Calm -- 26.52 in898.1 mb - 0.00 in0.0 mm 0.00 in0.0 mm
01:20 AM 57.0°F13.9°C 53.8°F12.1°C 89% Calm Calm -- 26.51 in897.7 mb - 0.00 in0.0 mm 0.00 in0.0 mm
01:25 AM 57.0°F13.9°C 54.1°F12.3°C 90% Calm Calm -- 26.51 in897.7 mb - 0.00 in0.0 mm 0.00 in0.0 mm
01:30 AM 57.0°F13.9°C 53.5°F11.9°C 88% Calm Calm -- 26.52 in898.1 mb - 0.00 in0.0 mm 0.00 in0.0 mm
01:35 AM 57.0°F13.9°C 54.1°F12.3°C 90% Calm Calm -- 26.52 in898.1 mb - 0.00 in0.0 mm 0.00 in0.0 mm
01:40 AM 57.0°F13.9°C 54.1°F12.3°C 90% Calm Calm -- 26.52 in898.1 mb - 0.00 in0.0 mm 0.00 in0.0 mm
01:45 AM 57.0°F13.9°C 54.1°F12.3°C 90% Calm Calm -- 26.52 in898.1 mb - 0.00 in0.0 mm 0.00 in0.0 mm
01:50 AM 57.0°F13.9°C 54.1°F12.3°C 90% Calm Calm -- 26.52 in898.1 mb - 0.00 in0.0 mm 0.00 in0.0 mm
01:55 AM 57.0°F13.9°C 54.4°F12.4°C 91% Calm Calm -- 26.52 in898.1 mb - 0.00 in0.0 mm 0.00 in0.0 mm
02:00 AM 56.0°F13.3°C 53.4°F11.9°C 91% Calm Calm -- 26.52 in898.1 mb - 0.00 in0.0 mm 0.00 in0.0 mm
02:10 AM 56.0°F13.3°C 53.4°F11.9°C 91% Calm Calm -- 26.52 in898.1 mb - 0.00 in0.0 mm 0.00 in0.0 mm
02:15 AM 56.0°F13.3°C 53.7°F12.1°C 92% Calm Calm -- 26.52 in898.1 mb - 0.00 in0.0 mm 0.00 in0.0 mm
02:20 AM 56.0°F13.3°C 53.7°F12.1°C 92% Calm Calm -- 26.52 in898.1 mb - 0.00 in0.0 mm 0.00 in0.0 mm
02:25 AM 56.0°F13.3°C 53.4°F11.9°C 91% Calm Calm -- 26.52 in898.1 mb - 0.00 in0.0 mm 0.00 in0.0 mm
02:30 AM 56.0°F13.3°C 53.4°F11.9°C 91% Calm Calm -- 26.52 in898.1 mb - 0.00 in0.0 mm 0.00 in0.0 mm
02:35 AM 56.0°F13.3°C 53.4°F11.9°C 91% Calm Calm -- 26.52 in898.1 mb - 0.00 in0.0 mm 0.00 in0.0 mm
02:40 AM 56.0°F13.3°C 53.4°F11.9°C 91% Calm Calm -- 26.52 in898.1 mb - 0.00 in0.0 mm 0.00 in0.0 mm
02:45 AM 56.0°F13.3°C 53.7°F12.1°C 92% Calm Calm -- 26.52 in898.1 mb - 0.00 in0.0 mm 0.00 in0.0 mm
02:50 AM 56.0°F13.3°C 53.7°F12.1°C 92% Calm Calm -- 26.52 in898.1 mb - 0.00 in0.0 mm 0.00 in0.0 mm
02:55 AM 56.0°F13.3°C 53.4°F11.9°C 91% Calm Calm -- 26.52 in898.1 mb - 0.00 in0.0 mm 0.00 in0.0 mm
03:00 AM 56.0°F13.3°C 53.7°F12.1°C 92% Calm Calm -- 26.52 in898.1 mb - 0.00 in0.0 mm 0.00 in0.0 mm
03:10 AM 56.0°F13.3°C 53.4°F11.9°C 91% Calm Calm -- 26.52 in898.1 mb - 0.00 in0.0 mm 0.00 in0.0 mm
03:15 AM 56.0°F13.3°C 53.1°F11.7°C 90% Calm Calm -- 26.52 in898.1 mb - 0.00 in0.0 mm 0.00 in0.0 mm
03:20 AM 57.0°F13.9°C 53.8°F12.1°C 89% Calm Calm -- 26.52 in898.1 mb - 0.00 in0.0 mm 0.00 in0.0 mm
03:25 AM 57.0°F13.9°C 53.8°F12.1°C 89% Calm Calm -- 26.52 in898.1 mb - 0.00 in0.0 mm 0.00 in0.0 mm
03:30 AM 57.0°F13.9°C 54.1°F12.3°C 90% Calm Calm -- 26.52 in898.1 mb - 0.00 in0.0 mm 0.00 in0.0 mm
03:35 AM 56.0°F13.3°C 53.4°F11.9°C 91% Calm Calm -- 26.51 in897.7 mb - 0.00 in0.0 mm 0.00 in0.0 mm
03:40 AM 56.0°F13.3°C 53.4°F11.9°C 91% Calm Calm -- 26.52 in898.1 mb - 0.00 in0.0 mm 0.00 in0.0 mm
03:45 AM 56.0°F13.3°C 53.4°F11.9°C 91% Calm Calm -- 26.52 in898.1 mb - 0.00 in0.0 mm 0.00 in0.0 mm
03:50 AM 56.0°F13.3°C 53.4°F11.9°C 91% Calm Calm -- 26.52 in898.1 mb - 0.00 in0.0 mm 0.00 in0.0 mm
03:55 AM 56.0°F13.3°C 53.4°F11.9°C 91% Calm Calm -- 26.52 in898.1 mb - 0.00 in0.0 mm 0.00 in0.0 mm
04:00 AM 56.0°F13.3°C 53.1°F11.7°C 90% Calm Calm -- 26.52 in898.1 mb - 0.00 in0.0 mm 0.00 in0.0 mm
04:10 AM 56.0°F13.3°C 53.1°F11.7°C 90% Calm Calm -- 26.52 in898.1 mb - 0.00 in0.0 mm 0.00 in0.0 mm
04:15 AM 56.0°F13.3°C 53.1°F11.7°C 90% Calm Calm -- 26.52 in898.1 mb - 0.00 in0.0 mm 0.00 in0.0 mm
04:20 AM 56.0°F13.3°C 53.1°F11.7°C 90% Calm Calm -- 26.51 in897.7 mb - 0.00 in0.0 mm 0.00 in0.0 mm
04:25 AM 56.0°F13.3°C 53.1°F11.7°C 90% Calm Calm -- 26.51 in897.7 mb - 0.00 in0.0 mm 0.00 in0.0 mm
04:30 AM 57.0°F13.9°C 53.5°F11.9°C 88% Calm Calm -- 26.51 in897.7 mb - 0.00 in0.0 mm 0.00 in0.0 mm
04:35 AM 56.0°F13.3°C 53.1°F11.7°C 90% Calm Calm -- 26.51 in897.7 mb - 0.00 in0.0 mm 0.00 in0.0 mm
04:40 AM 56.0°F13.3°C 53.4°F11.9°C 91% Calm Calm -- 26.51 in897.7 mb - 0.00 in0.0 mm 0.00 in0.0 mm
04:45 AM 55.5°F13.1°C 53.2°F11.8°C 92% Calm Calm -- 26.52 in898.1 mb - 0.00 in0.0 mm 0.00 in0.0 mm
04:50 AM 55.0°F12.8°C 52.7°F11.5°C 92% Calm Calm -- 26.52 in898.1 mb - 0.00 in0.0 mm 0.00 in0.0 mm
04:55 AM 55.0°F12.8°C 53.0°F11.7°C 93% Calm Calm -- 26.51 in897.7 mb - 0.00 in0.0 mm 0.00 in0.0 mm
05:00 AM 55.0°F12.8°C 52.4°F11.3°C 91% Calm Calm -- 26.52 in898.1 mb - 0.00 in0.0 mm 0.00 in0.0 mm
05:10 AM 55.0°F12.8°C 52.5°F11.4°C 91% Calm Calm -- 26.52 in898.1 mb - 0.00 in0.0 mm 0.00 in0.0 mm
05:15 AM 55.0°F12.8°C 52.4°F11.3°C 91% Calm Calm -- 26.52 in898.1 mb - 0.00 in0.0 mm 0.00 in0.0 mm
05:20 AM 55.0°F12.8°C 52.7°F11.5°C 92% Calm Calm -- 26.52 in898.1 mb - 0.00 in0.0 mm 0.00 in0.0 mm
05:25 AM 56.0°F13.3°C 53.4°F11.9°C 91% Calm Calm -- 26.52 in898.1 mb - 0.00 in0.0 mm 0.00 in0.0 mm
05:30 AM 56.0°F13.3°C 53.1°F11.7°C 90% Calm Calm -- 26.52 in898.1 mb - 0.00 in0.0 mm 0.00 in0.0 mm
05:35 AM 56.0°F13.3°C 53.4°F11.9°C 91% Calm Calm -- 26.52 in898.1 mb - 0.00 in0.0 mm 0.00 in0.0 mm
05:40 AM 55.5°F13.1°C 52.9°F11.6°C 91% Calm Calm -- 26.52 in898.1 mb - 0.00 in0.0 mm 0.00 in0.0 mm
05:45 AM 55.0°F12.8°C 52.7°F11.5°C 92% Calm Calm -- 26.52 in898.1 mb - 0.00 in0.0 mm 0.00 in0.0 mm
05:50 AM 55.0°F12.8°C 53.0°F11.7°C 93% Calm Calm -- 26.52 in898.1 mb - 0.00 in0.0 mm 0.00 in0.0 mm
05:55 AM 55.0°F12.8°C 53.0°F11.7°C 93% Calm Calm -- 26.52 in898.1 mb - 0.00 in0.0 mm 0.00 in0.0 mm
06:00 AM 55.0°F12.8°C 53.0°F11.7°C 93% Calm Calm -- 26.52 in898.1 mb - 0.00 in0.0 mm 0.00 in0.0 mm
06:10 AM 55.0°F12.8°C 53.0°F11.7°C 93% Calm Calm -- 26.52 in898.1 mb - 0.00 in0.0 mm 0.00 in0.0 mm
06:15 AM 56.0°F13.3°C 53.1°F11.7°C 90% Calm Calm -- 26.52 in898.1 mb - 0.00 in0.0 mm 0.00 in0.0 mm
06:20 AM 57.0°F13.9°C 54.4°F12.4°C 91% Calm Calm -- 26.52 in898.1 mb - 0.00 in0.0 mm 0.00 in0.0 mm
06:25 AM 57.0°F13.9°C 53.8°F12.1°C 89% Calm Calm -- 26.52 in898.1 mb - 0.00 in0.0 mm 0.00 in0.0 mm
06:30 AM 57.0°F13.9°C 54.1°F12.3°C 90% Calm Calm -- 26.52 in898.1 mb - 0.00 in0.0 mm 0.00 in0.0 mm
06:35 AM 57.0°F13.9°C 54.1°F12.3°C 90% Calm Calm -- 26.52 in898.1 mb - 0.00 in0.0 mm 0.00 in0.0 mm
06:40 AM 57.0°F13.9°C 54.4°F12.4°C 91% Calm Calm -- 26.53 in898.4 mb - 0.00 in0.0 mm 0.00 in0.0 mm
06:45 AM 56.0°F13.3°C 53.7°F12.1°C 92% Calm Calm -- 26.53 in898.4 mb - 0.00 in0.0 mm 0.00 in0.0 mm
06:50 AM 56.0°F13.3°C 53.7°F12.1°C 92% Calm Calm -- 26.53 in898.4 mb - 0.00 in0.0 mm 0.00 in0.0 mm
06:55 AM 57.0°F13.9°C 54.1°F12.3°C 90% Calm Calm -- 26.52 in898.1 mb - 0.00 in0.0 mm 0.00 in0.0 mm
07:00 AM 57.0°F13.9°C 54.1°F12.3°C 90% Calm Calm -- 26.53 in898.4 mb - 0.00 in0.0 mm 0.00 in0.0 mm
07:10 AM 57.0°F13.9°C 54.4°F12.4°C 91% Calm Calm -- 26.53 in898.4 mb - 0.00 in0.0 mm 0.00 in0.0 mm
07:15 AM 57.0°F13.9°C 54.1°F12.3°C 90% Calm Calm -- 26.53 in898.4 mb - 0.00 in0.0 mm 0.00 in0.0 mm
07:20 AM 58.0°F14.4°C 55.4°F13.0°C 91% Calm Calm -- 26.53 in898.4 mb - 0.00 in0.0 mm 0.00 in0.0 mm
07:25 AM 58.0°F14.4°C 55.7°F13.2°C 92% Calm Calm -- 26.53 in898.4 mb - 0.00 in0.0 mm 0.00 in0.0 mm
07:30 AM 58.0°F14.4°C 55.7°F13.2°C 92% Calm Calm -- 26.53 in898.4 mb - 0.00 in0.0 mm 0.00 in0.0 mm
07:35 AM 57.0°F13.9°C 54.7°F12.6°C 92% Calm Calm -- 26.53 in898.4 mb - 0.00 in0.0 mm 0.00 in0.0 mm
07:40 AM 58.0°F14.4°C 55.7°F13.2°C 92% Calm Calm -- 26.53 in898.4 mb - 0.00 in0.0 mm 0.00 in0.0 mm
07:45 AM 58.0°F14.4°C 55.4°F13.0°C 91% Calm Calm -- 26.53 in898.4 mb - 0.00 in0.0 mm 0.00 in0.0 mm
07:50 AM 59.0°F15.0°C 56.1°F13.4°C 90% Calm Calm -- 26.52 in898.1 mb - 0.00 in0.0 mm 0.00 in0.0 mm
07:55 AM 61.4°F16.3°C 57.2°F14.0°C 86% Calm Calm -- 26.53 in898.4 mb - 0.00 in0.0 mm 0.00 in0.0 mm
08:00 AM 62.0°F16.7°C 57.4°F14.1°C 85% Calm Calm -- 26.53 in898.4 mb - 0.00 in0.0 mm 0.00 in0.0 mm
08:10 AM 65.0°F18.3°C 58.0°F14.4°C 78% Calm Calm -- 26.52 in898.1 mb - 0.00 in0.0 mm 0.00 in0.0 mm
08:15 AM 68.0°F20.0°C 60.2°F15.7°C 76% Calm Calm -- 26.52 in898.1 mb - 0.00 in0.0 mm 0.00 in0.0 mm
08:20 AM 70.0°F21.1°C 59.8°F15.4°C 70% Calm Calm -- 26.52 in898.1 mb - 0.00 in0.0 mm 0.00 in0.0 mm
08:25 AM 70.8°F21.6°C 59.8°F15.4°C 68% Calm Calm -- 26.52 in898.1 mb - 0.00 in0.0 mm 0.00 in0.0 mm
08:30 AM 73.0°F22.8°C 59.7°F15.4°C 63% Calm Calm -- 26.52 in898.1 mb - 0.00 in0.0 mm 0.00 in0.0 mm
08:35 AM 74.0°F23.3°C 60.2°F15.7°C 62% Calm Calm -- 26.52 in898.1 mb - 0.00 in0.0 mm 0.00 in0.0 mm
08:40 AM 74.0°F23.3°C 59.2°F15.1°C 60% Calm Calm -- 26.52 in898.1 mb - 0.00 in0.0 mm 0.00 in0.0 mm
08:45 AM 75.0°F23.9°C 59.2°F15.1°C 58% Calm Calm -- 26.52 in898.1 mb - 0.00 in0.0 mm 0.00 in0.0 mm
08:50 AM 75.0°F23.9°C 61.5°F16.4°C 63% Calm Calm -- 26.52 in898.1 mb - 0.00 in0.0 mm 0.00 in0.0 mm
08:55 AM 73.0°F22.8°C 60.5°F15.8°C 65% Calm Calm -- 26.52 in898.1 mb - 0.00 in0.0 mm 0.00 in0.0 mm
09:00 AM 77.0°F25.0°C 60.6°F15.9°C 57% Calm Calm -- 26.52 in898.1 mb - 0.00 in0.0 mm 0.00 in0.0 mm
09:10 AM 73.0°F22.8°C 58.8°F14.9°C 61% 1.2 mph NNW1.9 kmh NNW 1.2 mph1.9 kmh 26.52 in898.1 mb - 0.00 in0.0 mm 0.00 in0.0 mm
09:15 AM 72.0°F22.2°C 57.4°F14.1°C 60% Calm Calm 2.3 mph3.7 kmh 26.52 in898.1 mb - 0.00 in0.0 mm 0.00 in0.0 mm
09:20 AM 72.0°F22.2°C 57.8°F14.3°C 61% Calm Calm 2.3 mph3.7 kmh 26.52 in898.1 mb - 0.00 in0.0 mm 0.00 in0.0 mm
09:25 AM 72.0°F22.2°C 59.2°F15.1°C 64% 1.2 mph NNW1.9 kmh NNW 2.3 mph3.7 kmh 26.52 in898.1 mb - 0.00 in0.0 mm 0.00 in0.0 mm
09:30 AM 71.0°F21.7°C 57.3°F14.1°C 62% Calm Calm 2.3 mph3.7 kmh 26.52 in898.1 mb - 0.00 in0.0 mm 0.00 in0.0 mm
09:35 AM 71.0°F21.7°C 59.1°F15.1°C 66% Calm Calm 1.2 mph1.9 kmh 26.52 in898.1 mb - 0.00 in0.0 mm 0.00 in0.0 mm
09:40 AM 73.0°F22.8°C 57.8°F14.3°C 59% Calm Calm -- 26.52 in898.1 mb - 0.00 in0.0 mm 0.00 in0.0 mm
09:45 AM 73.5°F23.1°C 58.3°F14.6°C 59% Calm Calm -- 26.52 in898.1 mb - 0.00 in0.0 mm 0.00 in0.0 mm
09:50 AM 74.0°F23.3°C 58.8°F14.9°C 59% Calm Calm -- 26.51 in897.7 mb - 0.00 in0.0 mm 0.00 in0.0 mm
09:55 AM 74.0°F23.3°C 58.3°F14.6°C 58% Calm Calm 2.3 mph3.7 kmh 26.51 in897.7 mb - 0.00 in0.0 mm 0.00 in0.0 mm
10:00 AM 74.0°F23.3°C 58.8°F14.9°C 59% 2.3 mph WNW3.7 kmh WNW 3.5 mph5.6 kmh 26.52 in898.1 mb - 0.00 in0.0 mm 0.00 in0.0 mm
10:10 AM 73.0°F22.8°C 59.7°F15.4°C 63% 2.3 mph W3.7 kmh W 3.5 mph5.6 kmh 26.51 in897.7 mb - 0.00 in0.0 mm 0.00 in0.0 mm
10:15 AM 73.0°F22.8°C 59.7°F15.4°C 63% 2.3 mph W3.7 kmh W 3.5 mph5.6 kmh 26.51 in897.7 mb - 0.00 in0.0 mm 0.00 in0.0 mm
10:20 AM 73.0°F22.8°C 59.2°F15.1°C 62% 1.2 mph N1.9 kmh N 2.3 mph3.7 kmh 26.51 in897.7 mb - 0.00 in0.0 mm 0.00 in0.0 mm
10:25 AM 73.0°F22.8°C 58.3°F14.6°C 60% Calm Calm 3.5 mph5.6 kmh 26.51 in897.7 mb - 0.00 in0.0 mm 0.00 in0.0 mm
10:30 AM 73.0°F22.8°C 57.8°F14.3°C 59% Calm Calm 3.5 mph5.6 kmh 26.51 in897.7 mb - 0.00 in0.0 mm 0.00 in0.0 mm
10:35 AM 74.0°F23.3°C 59.2°F15.1°C 60% 2.3 mph WNW3.7 kmh WNW 2.3 mph3.7 kmh 26.51 in897.7 mb - 0.00 in0.0 mm 0.00 in0.0 mm
10:40 AM 74.0°F23.3°C 58.8°F14.9°C 59% 1.2 mph NW1.9 kmh NW 2.3 mph3.7 kmh 26.51 in897.7 mb - 0.00 in0.0 mm 0.00 in0.0 mm
10:45 AM 74.0°F23.3°C 58.8°F14.9°C 59% 1.2 mph NW1.9 kmh NW 2.3 mph3.7 kmh 26.51 in897.7 mb - 0.00 in0.0 mm 0.00 in0.0 mm
10:50 AM 74.0°F23.3°C 59.2°F15.1°C 60% 2.3 mph WNW3.7 kmh WNW 2.3 mph3.7 kmh 26.51 in897.7 mb - 0.00 in0.0 mm 0.00 in0.0 mm
10:55 AM 75.0°F23.9°C 60.2°F15.7°C 60% 2.3 mph W3.7 kmh W 3.5 mph5.6 kmh 26.50 in897.4 mb - 0.00 in0.0 mm 0.00 in0.0 mm
11:00 AM 77.0°F25.0°C 60.1°F15.6°C 56% Calm Calm 1.2 mph1.9 kmh 26.51 in897.7 mb - 0.00 in0.0 mm 0.00 in0.0 mm
11:10 AM 77.0°F25.0°C 59.1°F15.1°C 54% Calm Calm 1.2 mph1.9 kmh 26.51 in897.7 mb - 0.00 in0.0 mm 0.00 in0.0 mm
11:15 AM 77.0°F25.0°C 59.6°F15.3°C 55% Calm Calm -- 26.51 in897.7 mb - 0.00 in0.0 mm 0.00 in0.0 mm
11:20 AM 80.0°F26.7°C 60.8°F16.0°C 52% 1.2 mph NW1.9 kmh NW 1.2 mph1.9 kmh 26.50 in897.4 mb - 0.00 in0.0 mm 0.00 in0.0 mm
11:25 AM 80.0°F26.7°C 61.3°F16.3°C 53% Calm Calm -- 26.50 in897.4 mb - 0.00 in0.0 mm 0.00 in0.0 mm
11:30 AM 82.0°F27.8°C 63.2°F17.3°C 53% 1.2 mph NW1.9 kmh NW 2.3 mph3.7 kmh 26.50 in897.4 mb - 0.00 in0.0 mm 0.00 in0.0 mm
11:35 AM 78.0°F25.6°C 59.5°F15.3°C 53% Calm Calm 3.5 mph5.6 kmh 26.50 in897.4 mb - 0.00 in0.0 mm 0.00 in0.0 mm
11:40 AM 77.5°F25.3°C 60.1°F15.6°C 55% Calm Calm 3.5 mph5.6 kmh 26.50 in897.4 mb - 0.00 in0.0 mm 0.00 in0.0 mm
11:45 AM 77.0°F25.0°C 60.6°F15.9°C 57% 1.2 mph NW1.9 kmh NW 3.5 mph5.6 kmh 26.49 in897.1 mb - 0.00 in0.0 mm 0.00 in0.0 mm
11:50 AM 78.0°F25.6°C 60.5°F15.8°C 55% Calm Calm -- 26.50 in897.4 mb - 0.00 in0.0 mm 0.00 in0.0 mm
11:55 AM 79.0°F26.1°C 60.9°F16.1°C 54% 1.2 mph NNW1.9 kmh NNW 2.3 mph3.7 kmh 26.49 in897.1 mb - 0.00 in0.0 mm 0.00 in0.0 mm
12:00 PM 76.0°F24.4°C 60.2°F15.7°C 58% Calm Calm 2.3 mph3.7 kmh 26.50 in897.4 mb - 0.00 in0.0 mm 0.00 in0.0 mm
12:10 PM 78.4°F25.8°C 59.9°F15.5°C 53% Calm Calm 2.3 mph3.7 kmh 26.49 in897.1 mb - 0.00 in0.0 mm 0.00 in0.0 mm
12:15 PM 79.0°F26.1°C 59.3°F15.2°C 51% 1.2 mph NNW1.9 kmh NNW 2.3 mph3.7 kmh 26.50 in897.4 mb - 0.00 in0.0 mm 0.00 in0.0 mm
12:20 PM 78.0°F25.6°C 59.5°F15.3°C 53% 1.2 mph NNW1.9 kmh NNW 2.3 mph3.7 kmh 26.49 in897.1 mb - 0.00 in0.0 mm 0.00 in0.0 mm
12:25 PM 78.0°F25.6°C 61.0°F16.1°C 56% 2.3 mph NNW3.7 kmh NNW 3.5 mph5.6 kmh 26.49 in897.1 mb - 0.00 in0.0 mm 0.00 in0.0 mm
12:30 PM 78.0°F25.6°C 61.5°F16.4°C 57% Calm Calm 6.9 mph11.1 kmh 26.47 in896.4 mb - 0.00 in0.0 mm 0.00 in0.0 mm
12:35 PM 78.0°F25.6°C 60.5°F15.8°C 55% 2.3 mph WNW3.7 kmh WNW 3.5 mph5.6 kmh 26.48 in896.7 mb - 0.00 in0.0 mm 0.00 in0.0 mm
12:40 PM 78.0°F25.6°C 60.5°F15.8°C 55% 1.2 mph WNW1.9 kmh WNW 3.5 mph5.6 kmh 26.48 in896.7 mb - 0.00 in0.0 mm 0.00 in0.0 mm
12:45 PM 78.0°F25.6°C 61.0°F16.1°C 56% 1.2 mph NNW1.9 kmh NNW 2.3 mph3.7 kmh 26.48 in896.7 mb - 0.00 in0.0 mm 0.00 in0.0 mm
12:50 PM 78.0°F25.6°C 61.0°F16.1°C 56% 1.2 mph N1.9 kmh N 3.5 mph5.6 kmh 26.48 in896.7 mb - 0.00 in0.0 mm 0.00 in0.0 mm
12:55 PM 78.0°F25.6°C 60.0°F15.6°C 54% 2.3 mph NW3.7 kmh NW 3.5 mph5.6 kmh 26.48 in896.7 mb - 0.00 in0.0 mm 0.00 in0.0 mm
01:00 PM 79.0°F26.1°C 60.9°F16.1°C 54% 2.3 mph WNW3.7 kmh WNW 3.5 mph5.6 kmh 26.48 in896.7 mb - 0.00 in0.0 mm 0.00 in0.0 mm
01:10 PM 79.0°F26.1°C 61.5°F16.4°C 55% 2.3 mph W3.7 kmh W 5.8 mph9.3 kmh 26.48 in896.7 mb - 0.00 in0.0 mm 0.00 in0.0 mm
01:15 PM 79.0°F26.1°C 62.5°F16.9°C 57% 1.2 mph WNW1.9 kmh WNW 3.5 mph5.6 kmh 26.47 in896.4 mb - 0.00 in0.0 mm 0.00 in0.0 mm
01:20 PM 80.0°F26.7°C 62.4°F16.9°C 55% 1.2 mph NW1.9 kmh NW 2.3 mph3.7 kmh 26.48 in896.7 mb - 0.00 in0.0 mm 0.00 in0.0 mm
01:25 PM 78.0°F25.6°C 61.0°F16.1°C 56% 3.5 mph NNW5.6 kmh NNW 5.8 mph9.3 kmh 26.47 in896.4 mb - 0.00 in0.0 mm 0.00 in0.0 mm
01:30 PM 78.0°F25.6°C 60.5°F15.8°C 55% 3.5 mph WNW5.6 kmh WNW 3.5 mph5.6 kmh 26.47 in896.4 mb - 0.00 in0.0 mm 0.00 in0.0 mm
01:35 PM 78.0°F25.6°C 61.5°F16.4°C 57% 2.3 mph WNW3.7 kmh WNW 5.8 mph9.3 kmh 26.48 in896.7 mb - 0.00 in0.0 mm 0.00 in0.0 mm
01:40 PM 78.2°F25.7°C 61.7°F16.5°C 57% 2.3 mph WNW3.7 kmh WNW 5.8 mph9.3 kmh 26.48 in896.7 mb - 0.00 in0.0 mm 0.00 in0.0 mm
01:45 PM 79.0°F26.1°C 63.0°F17.2°C 58% 2.3 mph WSW3.7 kmh WSW 3.5 mph5.6 kmh 26.47 in896.4 mb - 0.00 in0.0 mm 0.00 in0.0 mm
01:50 PM 78.0°F25.6°C 62.0°F16.7°C 58% 2.3 mph W3.7 kmh W 6.9 mph11.1 kmh 26.47 in896.4 mb - 0.00 in0.0 mm 0.00 in0.0 mm
01:55 PM 79.0°F26.1°C 61.5°F16.4°C 55% 3.5 mph W5.6 kmh W 3.5 mph5.6 kmh 26.47 in896.4 mb - 0.00 in0.0 mm 0.00 in0.0 mm
02:00 PM 80.0°F26.7°C 61.9°F16.6°C 54% 2.3 mph NW3.7 kmh NW 3.5 mph5.6 kmh 26.47 in896.4 mb - 0.00 in0.0 mm 0.00 in0.0 mm
02:10 PM 79.9°F26.6°C 61.2°F16.2°C 53% 3.5 mph WSW5.6 kmh WSW 3.5 mph5.6 kmh 26.47 in896.4 mb - 0.00 in0.0 mm 0.00 in0.0 mm
02:15 PM 79.0°F26.1°C 60.9°F16.1°C 54% 3.5 mph WNW5.6 kmh WNW 3.5 mph5.6 kmh 26.46 in896.0 mb - 0.00 in0.0 mm 0.00 in0.0 mm
02:20 PM 80.0°F26.7°C 60.8°F16.0°C 52% 2.3 mph NNW3.7 kmh NNW 3.5 mph5.6 kmh 26.46 in896.0 mb - 0.00 in0.0 mm 0.00 in0.0 mm
02:25 PM 80.0°F26.7°C 59.7°F15.4°C 50% 3.5 mph NW5.6 kmh NW 5.8 mph9.3 kmh 26.46 in896.0 mb - 0.00 in0.0 mm 0.00 in0.0 mm
02:30 PM 80.0°F26.7°C 61.3°F16.3°C 53% 2.3 mph NW3.7 kmh NW 3.5 mph5.6 kmh 26.46 in896.0 mb - 0.00 in0.0 mm 0.00 in0.0 mm
02:35 PM 80.9°F27.2°C 61.0°F16.1°C 51% 1.2 mph NNW1.9 kmh NNW 3.5 mph5.6 kmh 26.46 in896.0 mb - 0.00 in0.0 mm 0.00 in0.0 mm
02:40 PM 80.9°F27.2°C 61.1°F16.2°C 51% 1.2 mph N1.9 kmh N 3.5 mph5.6 kmh 26.46 in896.0 mb - 0.00 in0.0 mm 0.00 in0.0 mm
02:45 PM 80.0°F26.7°C 61.9°F16.6°C 54% 2.3 mph N3.7 kmh N 3.5 mph5.6 kmh 26.46 in896.0 mb - 0.00 in0.0 mm 0.00 in0.0 mm
02:50 PM 80.0°F26.7°C 62.9°F17.2°C 56% 2.3 mph W3.7 kmh W 5.8 mph9.3 kmh 26.45 in895.7 mb - 0.00 in0.0 mm 0.00 in0.0 mm
02:55 PM 80.0°F26.7°C 61.9°F16.6°C 54% 3.5 mph WNW5.6 kmh WNW 6.9 mph11.1 kmh 26.45 in895.7 mb - 0.00 in0.0 mm 0.00 in0.0 mm
03:00 PM 80.0°F26.7°C 61.9°F16.6°C 54% 5.8 mph W9.3 kmh W 8.1 mph13.0 kmh 26.46 in896.0 mb - 0.00 in0.0 mm 0.00 in0.0 mm
03:10 PM 80.0°F26.7°C 62.4°F16.9°C 55% 2.3 mph NW3.7 kmh NW 6.9 mph11.1 kmh 26.45 in895.7 mb - 0.00 in0.0 mm 0.00 in0.0 mm
03:15 PM 77.0°F25.0°C 61.6°F16.4°C 59% 1.2 mph WNW1.9 kmh WNW 6.9 mph11.1 kmh 26.45 in895.7 mb - 0.00 in0.0 mm 0.00 in0.0 mm
03:20 PM 77.0°F25.0°C 60.1°F15.6°C 56% 3.5 mph NW5.6 kmh NW 9.2 mph14.8 kmh 26.45 in895.7 mb - 0.00 in0.0 mm 0.00 in0.0 mm
03:25 PM 78.0°F25.6°C 60.5°F15.8°C 55% 3.5 mph N5.6 kmh N 5.8 mph9.3 kmh 26.45 in895.7 mb - 0.00 in0.0 mm 0.00 in0.0 mm
03:30 PM 79.0°F26.1°C 60.9°F16.1°C 54% 2.3 mph NNW3.7 kmh NNW 5.8 mph9.3 kmh 26.45 in895.7 mb - 0.00 in0.0 mm 0.00 in0.0 mm
03:35 PM 77.7°F25.4°C 61.2°F16.2°C 57% 1.2 mph NNW1.9 kmh NNW 5.8 mph9.3 kmh 26.45 in895.7 mb - 0.00 in0.0 mm 0.00 in0.0 mm
03:40 PM 77.0°F25.0°C 61.6°F16.4°C 59% 1.2 mph NNW1.9 kmh NNW 3.5 mph5.6 kmh 26.45 in895.7 mb - 0.00 in0.0 mm 0.00 in0.0 mm
03:45 PM 76.0°F24.4°C 60.2°F15.7°C 58% 1.2 mph NW1.9 kmh NW 2.3 mph3.7 kmh 26.46 in896.0 mb - 0.00 in0.0 mm 0.00 in0.0 mm
03:50 PM 77.0°F25.0°C 60.6°F15.9°C 57% 3.5 mph WSW5.6 kmh WSW 3.5 mph5.6 kmh 26.46 in896.0 mb - 0.00 in0.0 mm 0.00 in0.0 mm
03:55 PM 77.0°F25.0°C 61.6°F16.4°C 59% Calm Calm 2.3 mph3.7 kmh 26.46 in896.0 mb - 0.00 in0.0 mm 0.00 in0.0 mm
04:00 PM 78.0°F25.6°C 60.5°F15.8°C 55% 1.2 mph NW1.9 kmh NW 2.3 mph3.7 kmh 26.46 in896.0 mb - 0.00 in0.0 mm 0.00 in0.0 mm
04:10 PM 77.0°F25.0°C 61.1°F16.2°C 58% Calm Calm 3.5 mph5.6 kmh 26.45 in895.7 mb - 0.00 in0.0 mm 0.00 in0.0 mm
04:15 PM 76.0°F24.4°C 60.6°F15.9°C 59% 1.2 mph NW1.9 kmh NW 3.5 mph5.6 kmh 26.45 in895.7 mb - 0.00 in0.0 mm 0.00 in0.0 mm
04:20 PM 76.0°F24.4°C 60.6°F15.9°C 59% Calm Calm 3.5 mph5.6 kmh 26.45 in895.7 mb - 0.00 in0.0 mm 0.00 in0.0 mm
04:25 PM 76.0°F24.4°C 60.2°F15.7°C 58% 1.2 mph N1.9 kmh N 3.5 mph5.6 kmh 26.45 in895.7 mb - 0.00 in0.0 mm 0.00 in0.0 mm
04:30 PM 76.0°F24.4°C 60.2°F15.7°C 58% 1.2 mph NW1.9 kmh NW 2.3 mph3.7 kmh 26.46 in896.0 mb - 0.00 in0.0 mm 0.00 in0.0 mm
04:35 PM 76.0°F24.4°C 60.6°F15.9°C 59% 1.2 mph WNW1.9 kmh WNW 3.5 mph5.6 kmh 26.45 in895.7 mb - 0.00 in0.0 mm 0.00 in0.0 mm
04:40 PM 76.0°F24.4°C 61.1°F16.2°C 60% 2.3 mph W3.7 kmh W 3.5 mph5.6 kmh 26.45 in895.7 mb - 0.00 in0.0 mm 0.00 in0.0 mm
04:45 PM 76.0°F24.4°C 59.2°F15.1°C 56% 1.2 mph NNW1.9 kmh NNW 6.9 mph11.1 kmh 26.45 in895.7 mb - 0.00 in0.0 mm 0.00 in0.0 mm
04:50 PM 76.0°F24.4°C 59.2°F15.1°C 56% 3.5 mph NW5.6 kmh NW 3.5 mph5.6 kmh 26.45 in895.7 mb - 0.00 in0.0 mm 0.00 in0.0 mm
04:55 PM 76.0°F24.4°C 59.7°F15.4°C 57% Calm Calm 2.3 mph3.7 kmh 26.45 in895.7 mb - 0.00 in0.0 mm 0.00 in0.0 mm
05:00 PM 76.0°F24.4°C 59.7°F15.4°C 57% 1.2 mph N1.9 kmh N 2.3 mph3.7 kmh 26.45 in895.7 mb - 0.00 in0.0 mm 0.00 in0.0 mm
05:10 PM 75.0°F23.9°C 59.2°F15.1°C 58% Calm Calm 2.3 mph3.7 kmh 26.44 in895.4 mb - 0.00 in0.0 mm 0.00 in0.0 mm
05:15 PM 75.0°F23.9°C 59.2°F15.1°C 58% 1.2 mph NW1.9 kmh NW 3.5 mph5.6 kmh 26.44 in895.4 mb - 0.00 in0.0 mm 0.00 in0.0 mm
05:20 PM 75.0°F23.9°C 59.2°F15.1°C 58% Calm Calm 1.2 mph1.9 kmh 26.44 in895.4 mb - 0.00 in0.0 mm 0.00 in0.0 mm
05:25 PM 75.0°F23.9°C 59.2°F15.1°C 58% 1.2 mph N1.9 kmh N 2.3 mph3.7 kmh 26.45 in895.7 mb - 0.00 in0.0 mm 0.00 in0.0 mm
05:30 PM 75.0°F23.9°C 60.2°F15.7°C 60% Calm Calm 1.2 mph1.9 kmh 26.45 in895.7 mb - 0.00 in0.0 mm 0.00 in0.0 mm
05:35 PM 75.0°F23.9°C 60.2°F15.7°C 60% Calm Calm 1.2 mph1.9 kmh 26.45 in895.7 mb - 0.00 in0.0 mm 0.00 in0.0 mm
05:40 PM 75.0°F23.9°C 59.2°F15.1°C 58% Calm Calm 1.2 mph1.9 kmh 26.44 in895.4 mb - 0.00 in0.0 mm 0.00 in0.0 mm
05:45 PM 75.0°F23.9°C 59.7°F15.4°C 59% 1.2 mph NNW1.9 kmh NNW 1.2 mph1.9 kmh 26.44 in895.4 mb - 0.00 in0.0 mm 0.00 in0.0 mm
05:50 PM 75.0°F23.9°C 59.7°F15.4°C 59% 1.2 mph N1.9 kmh N 3.5 mph5.6 kmh 26.44 in895.4 mb - 0.00 in0.0 mm 0.00 in0.0 mm
05:55 PM 75.0°F23.9°C 60.2°F15.7°C 60% 1.2 mph N1.9 kmh N 2.3 mph3.7 kmh 26.44 in895.4 mb - 0.00 in0.0 mm 0.00 in0.0 mm
06:00 PM 75.0°F23.9°C 62.0°F16.7°C 64% Calm Calm -- 26.44 in895.4 mb - 0.00 in0.0 mm 0.00 in0.0 mm
06:10 PM 75.0°F23.9°C 60.2°F15.7°C 60% Calm Calm -- 26.44 in895.4 mb - 0.00 in0.0 mm 0.00 in0.0 mm
06:15 PM 74.0°F23.3°C 60.6°F15.9°C 63% Calm Calm -- 26.44 in895.4 mb - 0.00 in0.0 mm 0.00 in0.0 mm
06:20 PM 74.0°F23.3°C 61.0°F16.1°C 64% Calm Calm -- 26.44 in895.4 mb - 0.00 in0.0 mm 0.00 in0.0 mm
06:25 PM 74.0°F23.3°C 60.2°F15.7°C 62% Calm Calm -- 26.44 in895.4 mb - 0.00 in0.0 mm 0.00 in0.0 mm
06:30 PM 73.0°F22.8°C 58.3°F14.6°C 60% Calm Calm 1.2 mph1.9 kmh 26.44 in895.4 mb - 0.00 in0.0 mm 0.00 in0.0 mm
06:35 PM 73.0°F22.8°C 58.8°F14.9°C 61% Calm Calm 1.2 mph1.9 kmh 26.44 in895.4 mb - 0.00 in0.0 mm 0.00 in0.0 mm
06:40 PM 73.0°F22.8°C 59.2°F15.1°C 62% Calm Calm -- 26.44 in895.4 mb - 0.00 in0.0 mm 0.00 in0.0 mm
06:45 PM 73.0°F22.8°C 60.1°F15.6°C 64% Calm Calm 1.2 mph1.9 kmh 26.44 in895.4 mb - 0.00 in0.0 mm 0.00 in0.0 mm
06:50 PM 73.0°F22.8°C 61.4°F16.3°C 67% Calm Calm -- 26.44 in895.4 mb - 0.00 in0.0 mm 0.00 in0.0 mm
06:55 PM 72.0°F22.2°C 60.0°F15.6°C 66% Calm Calm -- 26.44 in895.4 mb - 0.00 in0.0 mm 0.00 in0.0 mm
07:00 PM 72.0°F22.2°C 60.0°F15.6°C 66% Calm Calm -- 26.44 in895.4 mb - 0.00 in0.0 mm 0.00 in0.0 mm
07:10 PM 71.0°F21.7°C 60.7°F15.9°C 70% Calm Calm -- 26.45 in895.7 mb - 0.00 in0.0 mm 0.00 in0.0 mm
07:15 PM 71.0°F21.7°C 61.1°F16.2°C 71% Calm Calm -- 26.45 in895.7 mb - 0.00 in0.0 mm 0.00 in0.0 mm
07:20 PM 70.0°F21.1°C 60.2°F15.7°C 71% Calm Calm -- 26.45 in895.7 mb - 0.00 in0.0 mm 0.00 in0.0 mm
07:25 PM 70.0°F21.1°C 60.6°F15.9°C 72% Calm Calm -- 26.45 in895.7 mb - 0.00 in0.0 mm 0.00 in0.0 mm
07:30 PM 69.0°F20.6°C 59.6°F15.3°C 72% Calm Calm -- 26.45 in895.7 mb - 0.00 in0.0 mm 0.00 in0.0 mm
07:35 PM 69.0°F20.6°C 60.7°F15.9°C 75% Calm Calm -- 26.45 in895.7 mb - 0.00 in0.0 mm 0.00 in0.0 mm
07:40 PM 69.0°F20.6°C 60.7°F15.9°C 75% Calm Calm -- 26.45 in895.7 mb - 0.00 in0.0 mm 0.00 in0.0 mm
07:45 PM 69.0°F20.6°C 60.4°F15.8°C 74% Calm Calm -- 26.45 in895.7 mb - 0.00 in0.0 mm 0.00 in0.0 mm
07:50 PM 68.0°F20.0°C 59.8°F15.4°C 75% Calm Calm -- 26.45 in895.7 mb - 0.00 in0.0 mm 0.00 in0.0 mm
07:55 PM 68.0°F20.0°C 59.8°F15.4°C 75% Calm Calm -- 26.46 in896.0 mb - 0.00 in0.0 mm 0.00 in0.0 mm
08:00 PM 68.0°F20.0°C 59.4°F15.2°C 74% Calm Calm -- 26.46 in896.0 mb - 0.00 in0.0 mm 0.00 in0.0 mm
08:10 PM 68.0°F20.0°C 60.2°F15.7°C 76% Calm Calm -- 26.46 in896.0 mb - 0.00 in0.0 mm 0.00 in0.0 mm
08:15 PM 68.0°F20.0°C 60.2°F15.7°C 76% Calm Calm -- 26.46 in896.0 mb - 0.00 in0.0 mm 0.00 in0.0 mm
08:20 PM 68.0°F20.0°C 60.2°F15.7°C 76% Calm Calm -- 26.46 in896.0 mb - 0.00 in0.0 mm 0.00 in0.0 mm
08:25 PM 68.0°F20.0°C 59.8°F15.4°C 75% Calm Calm -- 26.46 in896.0 mb - 0.00 in0.0 mm 0.00 in0.0 mm
08:30 PM 68.0°F20.0°C 60.5°F15.8°C 77% Calm Calm -- 26.47 in896.4 mb - 0.00 in0.0 mm 0.00 in0.0 mm
08:35 PM 68.0°F20.0°C 60.9°F16.1°C 78% Calm Calm -- 26.47 in896.4 mb - 0.00 in0.0 mm 0.00 in0.0 mm
08:40 PM 68.0°F20.0°C 60.9°F16.1°C 78% Calm Calm -- 26.47 in896.4 mb - 0.00 in0.0 mm 0.00 in0.0 mm
08:45 PM 68.0°F20.0°C 60.9°F16.1°C 78% Calm Calm -- 26.47 in896.4 mb - 0.00 in0.0 mm 0.00 in0.0 mm
08:50 PM 68.0°F20.0°C 60.9°F16.1°C 78% Calm Calm -- 26.47 in896.4 mb - 0.00 in0.0 mm 0.00 in0.0 mm
08:55 PM 67.0°F19.4°C 60.3°F15.7°C 79% Calm Calm -- 26.47 in896.4 mb - 0.00 in0.0 mm 0.00 in0.0 mm
09:00 PM 67.0°F19.4°C 60.6°F15.9°C 80% Calm Calm -- 26.47 in896.4 mb - 0.00 in0.0 mm 0.00 in0.0 mm
09:10 PM 68.0°F20.0°C 60.5°F15.8°C 77% Calm Calm -- 26.47 in896.4 mb - 0.00 in0.0 mm 0.00 in0.0 mm
09:15 PM 68.0°F20.0°C 61.6°F16.4°C 80% Calm Calm -- 26.47 in896.4 mb - 0.00 in0.0 mm 0.00 in0.0 mm
09:20 PM 67.6°F19.8°C 61.2°F16.2°C 80% Calm Calm -- 26.47 in896.4 mb - 0.00 in0.0 mm 0.00 in0.0 mm
09:25 PM 67.0°F19.4°C 60.3°F15.7°C 79% Calm Calm -- 26.47 in896.4 mb - 0.00 in0.0 mm 0.00 in0.0 mm
09:30 PM 67.0°F19.4°C 60.6°F15.9°C 80% Calm Calm -- 26.48 in896.7 mb - 0.00 in0.0 mm 0.00 in0.0 mm
09:35 PM 67.0°F19.4°C 61.0°F16.1°C 81% Calm Calm 1.2 mph1.9 kmh 26.49 in897.1 mb - 0.00 in0.0 mm 0.00 in0.0 mm
09:40 PM 67.0°F19.4°C 61.3°F16.3°C 82% Calm Calm 1.2 mph1.9 kmh 26.48 in896.7 mb - 0.00 in0.0 mm 0.00 in0.0 mm
09:45 PM 67.0°F19.4°C 62.7°F17.1°C 86% Calm Calm -- 26.48 in896.7 mb - 0.00 in0.0 mm 0.00 in0.0 mm
09:50 PM 67.0°F19.4°C 61.0°F16.1°C 81% Calm Calm -- 26.48 in896.7 mb - 0.00 in0.0 mm 0.00 in0.0 mm
09:55 PM 66.8°F19.3°C 61.1°F16.2°C 82% Calm Calm -- 26.48 in896.7 mb - 0.00 in0.0 mm 0.00 in0.0 mm
10:00 PM 66.0°F18.9°C 61.0°F16.1°C 84% Calm Calm -- 26.47 in896.4 mb - 0.00 in0.0 mm 0.00 in0.0 mm
10:10 PM 66.0°F18.9°C 62.3°F16.8°C 88% 1.2 mph NE1.9 kmh NE 1.2 mph1.9 kmh 26.49 in897.1 mb - 0.00 in0.0 mm 0.00 in0.0 mm
10:15 PM 66.0°F18.9°C 61.7°F16.5°C 86% Calm Calm -- 26.50 in897.4 mb - 0.00 in0.0 mm 0.00 in0.0 mm
10:20 PM 66.0°F18.9°C 62.3°F16.8°C 88% Calm Calm -- 26.49 in897.1 mb - 0.00 in0.0 mm 0.00 in0.0 mm
10:25 PM 65.2°F18.4°C 62.8°F17.1°C 92% Calm Calm -- 26.51 in897.7 mb - 0.00 in0.0 mm 0.00 in0.0 mm
10:30 PM 65.0°F18.3°C 62.9°F17.2°C 93% Calm Calm 1.2 mph1.9 kmh 26.51 in897.7 mb - 0.10 in2.5 mm 0.10 in2.5 mm
10:35 PM 64.0°F17.8°C 62.8°F17.1°C 96% Calm Calm 1.2 mph1.9 kmh 26.51 in897.7 mb - 0.10 in2.5 mm 0.10 in2.5 mm
10:40 PM 64.0°F17.8°C 63.1°F17.3°C 97% Calm Calm -- 26.51 in897.7 mb - 0.10 in2.5 mm 0.10 in2.5 mm
10:45 PM 63.0°F17.2°C 62.1°F16.7°C 97% Calm Calm -- 26.51 in897.7 mb - 0.10 in2.5 mm 0.10 in2.5 mm
10:50 PM 63.0°F17.2°C 62.1°F16.7°C 97% Calm Calm -- 26.51 in897.7 mb - 0.10 in2.5 mm 0.10 in2.5 mm
10:55 PM 63.0°F17.2°C 62.4°F16.9°C 98% Calm Calm -- 26.49 in897.1 mb - 0.10 in2.5 mm 0.10 in2.5 mm
11:00 PM 63.0°F17.2°C 62.4°F16.9°C 98% Calm Calm 1.2 mph1.9 kmh 26.49 in897.1 mb - 0.10 in2.5 mm 0.70 in17.8 mm
11:10 PM 62.0°F16.7°C 61.4°F16.3°C 98% Calm Calm -- 26.49 in897.1 mb - 0.10 in2.5 mm 0.80 in20.3 mm
11:15 PM 62.0°F16.7°C 61.4°F16.3°C 98% Calm Calm -- 26.50 in897.4 mb - 0.10 in2.5 mm 0.90 in22.9 mm
11:20 PM 60.0°F15.6°C 58.9°F14.9°C 96% Calm Calm -- 26.49 in897.1 mb - 0.10 in2.5 mm 1.00 in25.4 mm
11:25 PM 60.0°F15.6°C 59.1°F15.1°C 97% Calm Calm -- 26.50 in897.4 mb - 0.10 in2.5 mm 1.10 in27.9 mm
11:30 PM 61.0°F16.1°C 60.1°F15.6°C 97% Calm Calm -- 26.50 in897.4 mb - 0.10 in2.5 mm 1.20 in30.5 mm
11:35 PM 61.0°F16.1°C 60.1°F15.6°C 97% Calm Calm -- 26.51 in897.7 mb - 0.00 in0.0 mm 1.20 in30.5 mm
11:40 PM 61.0°F16.1°C 60.1°F15.6°C 97% Calm Calm -- 26.51 in897.7 mb - 0.00 in0.0 mm 1.20 in30.5 mm
11:45 PM 60.0°F15.6°C 58.9°F14.9°C 96% Calm Calm 1.2 mph1.9 kmh 26.51 in897.7 mb - 0.00 in0.0 mm 1.20 in30.5 mm
11:50 PM 60.0°F15.6°C 58.9°F14.9°C 96% Calm Calm -- 26.50 in897.4 mb - 0.00 in0.0 mm 1.20 in30.5 mm
11:55 PM 60.0°F15.6°C 59.1°F15.1°C 97% Calm Calm -- 26.50 in897.4 mb - 0.00 in0.0 mm 1.20 in30.5 mm